Humidity-temperature Sensor

Selected Measurement Type: Air Temperature

 
Air Temperature [°C]     6 entries per hour
Showing data from 4/21/2022 (00:00:00 Z) to 4/20/2022 (00:01:00 Z)
Previous Next [ Day | 3-Days | 7-Days ]
First Last
Prev [ Day | 3-Days | 7-Days ] Next
First Last

Start Time:     :
End Time:     :     
Time (in GMT) :00 :50 :40 :30 :20 :10
Previous Next [ Day | 3-Days | 7-Days ]
First Last
Prev [ Day | 3-Days | 7-Days ] Next
First Last


123 => good data
MM => data is determined as missing
-- => data not received/configured
Back to Top Back to Top
4/21/2022 00:00 to 23:10 27.02 27.16 27.02 27.07 26.80 26.70
4/20/2022 23:00 to 22:10 26.67 26.78 26.69 26.80 26.55 26.52
4/20/2022 22:00 to 21:10 26.38 26.21 26.33 26.46 26.46 26.83
4/20/2022 21:00 to 20:10 26.66 26.73 26.87 26.88 26.85 27.04
4/20/2022 20:00 to 19:10 26.92 27.20 27.24 27.28 27.34 27.52
4/20/2022 19:00 to 18:10 27.36 27.40 27.06 27.08 27.04 27.41
4/20/2022 18:00 to 17:10 27.39 27.54 27.13 26.91 27.03 26.97
4/20/2022 17:00 to 16:10 26.79 26.84 26.76 26.62 26.60 26.52
4/20/2022 16:00 to 15:10 26.80 26.53 26.72 26.66 26.88 26.51
4/20/2022 15:00 to 14:10 26.90 27.12 27.46 27.09 26.88 26.91
4/20/2022 14:00 to 13:10 26.87 26.84 26.84 27.06 27.49 27.23
4/20/2022 13:00 to 12:10 27.38 27.27 27.31 27.41 27.60 27.43
4/20/2022 12:00 to 11:10 27.54 27.57 27.48 27.45 27.32 27.38
4/20/2022 11:00 to 10:10 27.38 27.33 27.39 27.24 27.12 27.18
4/20/2022 10:00 to 9:10 27.23 27.29 27.09 26.98 27.07 27.11
4/20/2022 09:00 to 8:10 26.93 26.95 26.95 27.21 27.22 27.15
4/20/2022 08:00 to 7:10 27.20 27.21 27.17 27.17 27.16 27.22
4/20/2022 07:00 to 6:10 27.21 27.25 27.31 27.37 27.35 27.40
4/20/2022 06:00 to 5:10 27.44 27.32 27.24 27.16 27.09 27.18
4/20/2022 05:00 to 4:10 27.30 27.38 27.38 27.63 27.54 27.61
4/20/2022 04:00 to 3:10 28.03 27.72 27.59 27.57 27.50 27.59
4/20/2022 03:00 to 2:10 27.61 27.53 27.50 27.53 27.39 27.55
4/20/2022 02:00 to 1:10 27.38 27.47 27.50 27.50 27.52 27.56
4/20/2022 01:00 to 0:10 27.42 27.25 27.32 27.33 27.26 27.24